sensor_id;sensor_type;location;lat;lon;timestamp;pressure;altitude;pressure_sealevel;temperature;humidity
44103;BME280;29769;42.178;24.742;2022-10-16T00:01:41;100347.28;;;10.39;100.00
44103;BME280;29769;42.178;24.742;2022-10-16T00:04:26;100346.38;;;10.40;100.00
44103;BME280;29769;42.178;24.742;2022-10-16T00:07:10;100350.81;;;10.34;100.00
44103;BME280;29769;42.178;24.742;2022-10-16T00:09:55;100355.19;;;10.36;100.00
44103;BME280;29769;42.178;24.742;2022-10-16T00:12:39;100350.81;;;10.34;100.00
44103;BME280;29769;42.178;24.742;2022-10-16T00:15:24;100357.81;;;10.36;100.00
44103;BME280;29769;42.178;24.742;2022-10-16T00:18:08;100365.72;;;10.33;100.00
44103;BME280;29769;42.178;24.742;2022-10-16T00:20:53;100358.72;;;10.27;100.00
44103;BME280;29769;42.178;24.742;2022-10-16T00:24:00;100361.34;;;10.27;100.00
44103;BME280;29769;42.178;24.742;2022-10-16T00:26:45;100353.50;;;10.21;100.00
44103;BME280;29769;42.178;24.742;2022-10-16T00:29:33;100358.75;;;10.12;100.00
44103;BME280;29769;42.178;24.742;2022-10-16T00:32:18;100357.88;;;10.06;100.00
44103;BME280;29769;42.178;24.742;2022-10-16T00:35:03;100353.50;;;10.00;100.00
44103;BME280;29769;42.178;24.742;2022-10-16T00:37:48;100355.28;;;9.94;100.00
44103;BME280;29769;42.178;24.742;2022-10-16T00:40:33;100357.06;;;9.84;100.00
44103;BME280;29769;42.178;24.742;2022-10-16T00:46:19;100364.94;;;9.78;100.00
44103;BME280;29769;42.178;24.742;2022-10-16T00:51:52;100371.97;;;9.68;100.00
44103;BME280;29769;42.178;24.742;2022-10-16T00:54:37;100371.97;;;9.62;100.00
44103;BME280;29769;42.178;24.742;2022-10-16T00:57:22;100376.34;;;9.65;100.00
44103;BME280;29769;42.178;24.742;2022-10-16T01:00:08;100378.97;;;9.56;100.00
44103;BME280;29769;42.178;24.742;2022-10-16T01:02:54;100383.38;;;9.54;100.00
44103;BME280;29769;42.178;24.742;2022-10-16T01:05:41;100388.63;;;9.49;100.00
44103;BME280;29769;42.178;24.742;2022-10-16T01:08:34;100399.97;;;9.45;100.00
44103;BME280;29769;42.178;24.742;2022-10-16T01:14:27;100406.09;;;9.41;100.00
44103;BME280;29769;42.178;24.742;2022-10-16T01:17:21;100410.50;;;9.39;100.00
44103;BME280;29769;42.178;24.742;2022-10-16T01:20:29;100405.22;;;9.33;100.00
44103;BME280;29769;42.178;24.742;2022-10-16T01:29:17;100409.56;;;9.07;100.00
44103;BME280;29769;42.178;24.742;2022-10-16T01:32:13;100412.19;;;9.05;100.00
44103;BME280;29769;42.178;24.742;2022-10-16T01:35:04;100416.59;;;9.17;100.00
44103;BME280;29769;42.178;24.742;2022-10-16T01:37:51;100415.69;;;9.18;100.00
44103;BME280;29769;42.178;24.742;2022-10-16T01:40:39;100414.81;;;9.19;100.00
44103;BME280;29769;42.178;24.742;2022-10-16T01:43:27;100418.34;;;9.16;100.00
44103;BME280;29769;42.178;24.742;2022-10-16T01:46:15;100421.75;;;8.83;100.00
44103;BME280;29769;42.178;24.742;2022-10-16T01:49:02;100409.44;;;8.63;100.00
44103;BME280;29769;42.178;24.742;2022-10-16T01:51:48;100426.03;;;8.63;100.00
44103;BME280;29769;42.178;24.742;2022-10-16T01:54:35;100429.56;;;8.70;100.00
44103;BME280;29769;42.178;24.742;2022-10-16T01:57:21;100427.81;;;8.66;100.00
44103;BME280;29769;42.178;24.742;2022-10-16T02:00:08;100433.03;;;8.61;100.00
44103;BME280;29769;42.178;24.742;2022-10-16T02:02:57;100444.28;;;8.39;100.00
44103;BME280;29769;42.178;24.742;2022-10-16T02:05:47;100431.94;;;8.27;100.00
44103;BME280;29769;42.178;24.742;2022-10-16T02:08:34;100430.13;;;8.19;100.00
44103;BME280;29769;42.178;24.742;2022-10-16T02:11:19;100431.84;;;8.11;100.00
44103;BME280;29769;42.178;24.742;2022-10-16T02:14:05;100430.13;;;8.19;100.00
44103;BME280;29769;42.178;24.742;2022-10-16T02:16:50;100433.63;;;8.19;100.00
44103;BME280;29769;42.178;24.742;2022-10-16T02:19:34;100437.13;;;8.20;100.00
44103;BME280;29769;42.178;24.742;2022-10-16T02:22:24;100442.34;;;8.14;100.00
44103;BME280;29769;42.178;24.742;2022-10-16T02:28:27;100438.03;;;8.22;100.00
44103;BME280;29769;42.178;24.742;2022-10-16T02:31:16;100442.41;;;8.24;100.00
44103;BME280;29769;42.178;24.742;2022-10-16T02:34:03;100443.28;;;8.22;100.00
44103;BME280;29769;42.178;24.742;2022-10-16T02:36:50;100447.56;;;8.08;100.00
44103;BME280;29769;42.178;24.742;2022-10-16T02:39:35;100453.63;;;7.99;100.00
44103;BME280;29769;42.178;24.742;2022-10-16T02:42:20;100452.72;;;8.00;100.00
44103;BME280;29769;42.178;24.742;2022-10-16T02:45:05;100454.44;;;7.93;100.00
44103;BME280;29769;42.178;24.742;2022-10-16T02:47:50;100465.66;;;7.79;100.00
44103;BME280;29769;42.178;24.742;2022-10-16T02:50:35;100464.56;;;7.52;100.00
44103;BME280;29769;42.178;24.742;2022-10-16T02:53:19;100465.19;;;7.29;100.00
44103;BME280;29769;42.178;24.742;2022-10-16T02:56:04;100471.28;;;7.26;100.00
44103;BME280;29769;42.178;24.742;2022-10-16T02:58:49;100467.03;;;7.36;100.00
44103;BME280;29769;42.178;24.742;2022-10-16T03:01:34;100472.25;;;7.37;100.00
44103;BME280;29769;42.178;24.742;2022-10-16T03:04:18;100468.91;;;7.52;100.00
44103;BME280;29769;42.178;24.742;2022-10-16T03:07:03;100470.69;;;7.56;100.00
44103;BME280;29769;42.178;24.742;2022-10-16T03:09:48;100475.19;;;7.68;100.00
44103;BME280;29769;42.178;24.742;2022-10-16T03:12:32;100470.75;;;7.62;100.00
44103;BME280;29769;42.178;24.742;2022-10-16T03:15:16;100476.03;;;7.65;100.00
44103;BME280;29769;42.178;24.742;2022-10-16T03:18:01;100486.53;;;7.67;100.00
44103;BME280;29769;42.178;24.742;2022-10-16T03:20:45;100485.47;;;7.48;100.00
44103;BME280;29769;42.178;24.742;2022-10-16T03:23:30;100491.41;;;7.33;100.00
44103;BME280;29769;42.178;24.742;2022-10-16T03:26:14;100490.34;;;7.13;100.00
44103;BME280;29769;42.178;24.742;2022-10-16T03:28:59;100487.50;;;6.95;100.00
44103;BME280;29769;42.178;24.742;2022-10-16T03:31:45;100491.81;;;6.91;100.00
44103;BME280;29769;42.178;24.742;2022-10-16T03:34:29;100492.56;;;6.83;100.00
44103;BME280;29769;42.178;24.742;2022-10-16T03:37:14;100495.91;;;6.72;100.00
44103;BME280;29769;42.178;24.742;2022-10-16T03:39:58;100499.38;;;6.70;100.00
44103;BME280;29769;42.178;24.742;2022-10-16T03:42:43;100498.41;;;6.63;100.00
44103;BME280;29769;42.178;24.742;2022-10-16T03:45:28;100497.53;;;6.61;100.00
44103;BME280;29769;42.178;24.742;2022-10-16T03:48:13;100501.03;;;6.63;100.00
44103;BME280;29769;42.178;24.742;2022-10-16T03:50:57;100502.81;;;6.66;100.00
44103;BME280;29769;42.178;24.742;2022-10-16T03:53:42;100508.06;;;6.66;100.00
44103;BME280;29769;42.178;24.742;2022-10-16T03:56:26;100508.88;;;6.62;100.00
44103;BME280;29769;42.178;24.742;2022-10-16T03:59:11;100509.75;;;6.64;100.00
44103;BME280;29769;42.178;24.742;2022-10-16T04:01:55;100517.66;;;6.67;100.00
44103;BME280;29769;42.178;24.742;2022-10-16T04:04:40;100508.88;;;6.62;100.00
44103;BME280;29769;42.178;24.742;2022-10-16T04:07:25;100506.75;;;6.37;100.00
44103;BME280;29769;42.178;24.742;2022-10-16T04:10:09;100512.78;;;6.33;100.00
44103;BME280;29769;42.178;24.742;2022-10-16T04:12:54;100509.56;;;6.49;100.00
44103;BME280;29769;42.178;24.742;2022-10-16T04:15:40;100513.75;;;6.38;100.00
44103;BME280;29769;42.178;24.742;2022-10-16T04:18:25;100504.03;;;6.29;100.00
44103;BME280;29769;42.178;24.742;2022-10-16T04:21:11;100509.44;;;6.41;100.00
44103;BME280;29769;42.178;24.742;2022-10-16T04:23:55;100501.59;;;6.41;100.00
44103;BME280;29769;42.178;24.742;2022-10-16T04:26:40;100508.56;;;6.39;100.00
44103;BME280;29769;42.178;24.742;2022-10-16T04:29:24;100516.25;;;6.30;100.00
44103;BME280;29769;42.178;24.742;2022-10-16T04:32:09;100509.50;;;6.44;100.00
44103;BME280;29769;42.178;24.742;2022-10-16T04:34:54;100518.03;;;6.33;100.00
44103;BME280;29769;42.178;24.742;2022-10-16T04:37:38;100519.50;;;6.15;100.00
44103;BME280;29769;42.178;24.742;2022-10-16T04:40:23;100516.00;;;6.15;100.00
44103;BME280;29769;42.178;24.742;2022-10-16T04:43:07;100512.66;;;6.22;100.00
44103;BME280;29769;42.178;24.742;2022-10-16T04:45:52;100516.31;;;6.35;100.00
44103;BME280;29769;42.178;24.742;2022-10-16T04:48:39;100517.13;;;6.31;100.00
44103;BME280;29769;42.178;24.742;2022-10-16T04:51:23;100519.69;;;6.28;100.00
44103;BME280;29769;42.178;24.742;2022-10-16T04:54:09;100533.81;;;6.39;100.00
44103;BME280;29769;42.178;24.742;2022-10-16T04:56:54;100527.91;;;6.52;100.00
44103;BME280;29769;42.178;24.742;2022-10-16T04:59:39;100539.28;;;6.57;100.00
44103;BME280;29769;42.178;24.742;2022-10-16T05:02:23;100534.34;;;6.77;100.00
44103;BME280;29769;42.178;24.742;2022-10-16T05:05:07;100536.25;;;6.88;100.00
44103;BME280;29769;42.178;24.742;2022-10-16T05:07:53;100536.47;;;7.06;100.00
44103;BME280;29769;42.178;24.742;2022-10-16T05:10:37;100541.06;;;7.26;100.00
44103;BME280;29769;42.178;24.742;2022-10-16T05:13:22;100539.47;;;7.38;100.00
44103;BME280;29769;42.178;24.742;2022-10-16T05:16:07;100542.47;;;7.78;100.00
44103;BME280;29769;42.178;24.742;2022-10-16T05:18:52;100543.66;;;8.15;100.00
44103;BME280;29769;42.178;24.742;2022-10-16T05:21:36;100553.50;;;8.38;100.00
44103;BME280;29769;42.178;24.742;2022-10-16T05:24:21;100556.22;;;8.49;100.00
44103;BME280;29769;42.178;24.742;2022-10-16T05:27:06;100555.50;;;8.74;100.00
44103;BME280;29769;42.178;24.742;2022-10-16T05:29:50;100563.44;;;8.85;100.00
44103;BME280;29769;42.178;24.742;2022-10-16T05:32:35;100570.59;;;9.22;100.00
44103;BME280;29769;42.178;24.742;2022-10-16T05:35:20;100569.81;;;9.43;100.00
44103;BME280;29769;42.178;24.742;2022-10-16T05:38:05;100578.59;;;9.63;100.00
44103;BME280;29769;42.178;24.742;2022-10-16T05:40:50;100576.03;;;9.75;100.00
44103;BME280;29769;42.178;24.742;2022-10-16T05:43:34;100580.44;;;9.93;100.00
44103;BME280;29769;42.178;24.742;2022-10-16T05:46:19;100583.97;;;10.22;100.00
44103;BME280;29769;42.178;24.742;2022-10-16T05:49:04;100592.75;;;10.49;100.00
44103;BME280;29769;42.178;24.742;2022-10-16T05:51:48;100590.97;;;10.72;100.00
44103;BME280;29769;42.178;24.742;2022-10-16T05:54:33;100597.09;;;10.77;100.00
44103;BME280;29769;42.178;24.742;2022-10-16T05:57:17;100590.91;;;10.98;100.00
44103;BME280;29769;42.178;24.742;2022-10-16T06:00:03;100600.41;;;11.49;100.00
44103;BME280;29769;42.178;24.742;2022-10-16T06:02:57;100597.69;;;11.59;100.00
44103;BME280;29769;42.178;24.742;2022-10-16T06:05:41;100599.09;;;12.18;100.00
44103;BME280;29769;42.178;24.742;2022-10-16T06:08:27;100600.81;;;12.28;100.00
44103;BME280;29769;42.178;24.742;2022-10-16T06:11:13;100600.31;;;12.83;100.00
44103;BME280;29769;42.178;24.742;2022-10-16T06:13:59;100598.31;;;13.05;100.00
44103;BME280;29769;42.178;24.742;2022-10-16T06:16:47;100605.34;;;13.06;100.00
44103;BME280;29769;42.178;24.742;2022-10-16T06:19:31;100605.97;;;13.32;100.00
44103;BME280;29769;42.178;24.742;2022-10-16T06:22:16;100612.28;;;13.86;100.00
44103;BME280;29769;42.178;24.742;2022-10-16T06:25:00;100610.56;;;13.85;100.00
44103;BME280;29769;42.178;24.742;2022-10-16T06:27:44;100611.59;;;14.32;100.00
44103;BME280;29769;42.178;24.742;2022-10-16T06:30:29;100624.09;;;14.77;100.00
44103;BME280;29769;42.178;24.742;2022-10-16T06:33:14;100614.69;;;14.62;100.00
44103;BME280;29769;42.178;24.742;2022-10-16T06:36:06;100610.38;;;15.04;100.00
44103;BME280;29769;42.178;24.742;2022-10-16T06:38:52;100623.91;;;15.80;100.00
44103;BME280;29769;42.178;24.742;2022-10-16T06:41:37;100629.38;;;16.48;100.00
44103;BME280;29769;42.178;24.742;2022-10-16T06:44:32;100620.66;;;16.79;93.90
44103;BME280;29769;42.178;24.742;2022-10-16T06:47:17;100615.47;;;17.70;85.52
44103;BME280;29769;42.178;24.742;2022-10-16T06:50:02;100620.34;;;18.67;72.78
44103;BME280;29769;42.178;24.742;2022-10-16T06:52:48;100615.59;;;19.27;67.58
44103;BME280;29769;42.178;24.742;2022-10-16T06:55:32;100623.47;;;19.79;64.61
44103;BME280;29769;42.178;24.742;2022-10-16T06:58:16;100631.66;;;19.75;62.74
44103;BME280;29769;42.178;24.742;2022-10-16T07:01:01;100629.41;;;19.63;63.27
44103;BME280;29769;42.178;24.742;2022-10-16T07:03:46;100629.25;;;19.90;60.96
44103;BME280;29769;42.178;24.742;2022-10-16T07:06:31;100628.81;;;19.79;61.56
44103;BME280;29769;42.178;24.742;2022-10-16T07:09:16;100631.69;;;19.96;60.69
44103;BME280;29769;42.178;24.742;2022-10-16T07:12:02;100626.00;;;19.59;61.59
44103;BME280;29769;42.178;24.742;2022-10-16T07:14:46;100630.97;;;19.20;63.40
44103;BME280;29769;42.178;24.742;2022-10-16T07:17:32;100633.13;;;18.58;65.48
44103;BME280;29769;42.178;24.742;2022-10-16T07:20:17;100640.19;;;18.85;64.99
44103;BME280;29769;42.178;24.742;2022-10-16T07:23:01;100635.97;;;19.04;64.81
44103;BME280;29769;42.178;24.742;2022-10-16T07:25:45;100645.19;;;19.45;63.95
44103;BME280;29769;42.178;24.742;2022-10-16T07:28:38;100640.16;;;20.08;61.62
44103;BME280;29769;42.178;24.742;2022-10-16T07:31:24;100642.31;;;20.65;59.33
44103;BME280;29769;42.178;24.742;2022-10-16T07:34:10;100628.47;;;20.33;58.88
44103;BME280;29769;42.178;24.742;2022-10-16T07:36:54;100631.97;;;20.77;57.70
44103;BME280;29769;42.178;24.742;2022-10-16T07:39:39;100628.88;;;21.28;55.62
44103;BME280;29769;42.178;24.742;2022-10-16T07:42:23;100624.53;;;21.26;54.94
44103;BME280;29769;42.178;24.742;2022-10-16T07:45:08;100632.59;;;20.84;55.64
44103;BME280;29769;42.178;24.742;2022-10-16T07:47:53;100632.63;;;21.24;55.08
44103;BME280;29769;42.178;24.742;2022-10-16T07:50:38;100621.72;;;22.43;51.50
44103;BME280;29769;42.178;24.742;2022-10-16T07:53:23;100626.06;;;22.45;50.39
44103;BME280;29769;42.178;24.742;2022-10-16T07:56:07;100618.81;;;22.83;48.20
44103;BME280;29769;42.178;24.742;2022-10-16T07:58:52;100623.50;;;22.61;49.06
44103;BME280;29769;42.178;24.742;2022-10-16T08:01:37;100623.31;;;22.47;49.00
44103;BME280;29769;42.178;24.742;2022-10-16T08:04:22;100629.56;;;22.65;49.28
44103;BME280;29769;42.178;24.742;2022-10-16T08:07:07;100622.28;;;23.70;45.70
44103;BME280;29769;42.178;24.742;2022-10-16T08:09:52;100584.56;;;23.56;45.27
44103;BME280;29769;42.178;24.742;2022-10-16T08:12:37;100621.75;;;24.27;44.46
44103;BME280;29769;42.178;24.742;2022-10-16T08:15:21;100614.31;;;25.52;40.41
44103;BME280;29769;42.178;24.742;2022-10-16T08:18:06;100624.72;;;25.72;39.63
44103;BME280;29769;42.178;24.742;2022-10-16T08:20:58;100617.59;;;25.13;40.27
44103;BME280;29769;42.178;24.742;2022-10-16T08:23:44;100623.38;;;25.07;40.06
44103;BME280;29769;42.178;24.742;2022-10-16T08:26:29;100610.13;;;25.32;40.20
44103;BME280;29769;42.178;24.742;2022-10-16T08:29:14;100614.13;;;24.35;41.30
44103;BME280;29769;42.178;24.742;2022-10-16T08:31:59;100610.56;;;24.35;41.79
44103;BME280;29769;42.178;24.742;2022-10-16T08:34:44;100612.03;;;25.74;38.81
44103;BME280;29769;42.178;24.742;2022-10-16T08:37:31;100610.66;;;26.63;36.59
44103;BME280;29769;42.178;24.742;2022-10-16T08:40:24;100617.69;;;25.70;37.54
44103;BME280;29769;42.178;24.742;2022-10-16T08:46:10;100607.38;;;25.34;38.48
44103;BME280;29769;42.178;24.742;2022-10-16T08:48:59;100612.56;;;25.51;37.58
44103;BME280;29769;42.178;24.742;2022-10-16T08:51:44;100609.06;;;26.61;35.96
44103;BME280;29769;42.178;24.742;2022-10-16T08:57:44;100611.03;;;27.11;34.23
44103;BME280;29769;42.178;24.742;2022-10-16T09:00:29;100603.97;;;28.93;31.19
44103;BME280;29769;42.178;24.742;2022-10-16T09:21:14;100599.06;;;29.44;28.19
44103;BME280;29769;42.178;24.742;2022-10-16T09:23:33;100593.81;;;30.84;26.88
44103;BME280;29769;42.178;24.742;2022-10-16T09:26:18;100597.78;;;31.84;25.38
44103;BME280;29769;42.178;24.742;2022-10-16T09:29:06;100599.19;;;31.07;26.43
44103;BME280;29769;42.178;24.742;2022-10-16T09:31:52;100594.22;;;31.93;25.81
44103;BME280;29769;42.178;24.742;2022-10-16T09:34:39;100593.97;;;34.06;23.28
44103;BME280;29769;42.178;24.742;2022-10-16T09:37:25;100591.97;;;33.15;23.54
44103;BME280;29769;42.178;24.742;2022-10-16T09:40:23;100585.03;;;33.40;23.78
44103;BME280;29769;42.178;24.742;2022-10-16T09:46:06;100571.91;;;32.78;23.25
44103;BME280;29769;42.178;24.742;2022-10-16T09:48:51;100585.25;;;30.14;26.04
44103;BME280;29769;42.178;24.742;2022-10-16T09:51:38;100582.94;;;29.65;26.15
44103;BME280;29769;42.178;24.742;2022-10-16T09:54:23;100582.50;;;31.00;25.33
44103;BME280;29769;42.178;24.742;2022-10-16T09:57:16;100567.97;;;32.22;23.36
44103;BME280;29769;42.178;24.742;2022-10-16T10:00:04;100567.78;;;30.82;24.26
44103;BME280;29769;42.178;24.742;2022-10-16T10:02:53;100564.56;;;30.02;25.74
44103;BME280;29769;42.178;24.742;2022-10-16T10:05:38;100570.66;;;31.73;24.00
44103;BME280;29769;42.178;24.742;2022-10-16T10:08:23;100552.72;;;33.45;21.91
44103;BME280;29769;42.178;24.742;2022-10-16T10:11:08;100552.69;;;34.90;20.84
44103;BME280;29769;42.178;24.742;2022-10-16T10:14:02;100555.31;;;36.02;19.22
44103;BME280;29769;42.178;24.742;2022-10-16T10:16:47;100555.84;;;33.87;20.85
44103;BME280;29769;42.178;24.742;2022-10-16T10:22:39;100557.34;;;31.70;22.69
44103;BME280;29769;42.178;24.742;2022-10-16T10:34:39;100532.38;;;33.94;21.26
44103;BME280;29769;42.178;24.742;2022-10-16T10:43:04;100521.38;;;36.94;18.61
44103;BME280;29769;42.178;24.742;2022-10-16T10:46:03;100520.19;;;38.15;17.41
44103;BME280;29769;42.178;24.742;2022-10-16T10:54:37;100522.25;;;35.96;19.08
44103;BME280;29769;42.178;24.742;2022-10-16T10:57:30;100515.75;;;36.79;17.90
44103;BME280;29769;42.178;24.742;2022-10-16T11:06:38;100507.00;;;35.25;19.05
44103;BME280;29769;42.178;24.742;2022-10-16T11:09:25;100498.06;;;34.54;19.67
44103;BME280;29769;42.178;24.742;2022-10-16T11:12:30;100513.38;;;32.14;21.35
44103;BME280;29769;42.178;24.742;2022-10-16T11:15:37;100509.56;;;31.26;22.70
44103;BME280;29769;42.178;24.742;2022-10-16T11:18:22;100504.75;;;32.57;21.21
44103;BME280;29769;42.178;24.742;2022-10-16T11:21:10;100499.91;;;33.73;20.45
44103;BME280;29769;42.178;24.742;2022-10-16T11:24:00;100497.25;;;34.62;19.94
44103;BME280;29769;42.178;24.742;2022-10-16T11:26:48;100494.19;;;35.00;19.22
44103;BME280;29769;42.178;24.742;2022-10-16T11:29:35;100493.03;;;36.13;18.52
44103;BME280;29769;42.178;24.742;2022-10-16T11:32:21;100490.66;;;37.78;17.29
44103;BME280;29769;42.178;24.742;2022-10-16T11:35:32;100486.91;;;38.33;16.57
44103;BME280;29769;42.178;24.742;2022-10-16T11:38:15;100482.59;;;37.76;16.86
44103;BME280;29769;42.178;24.742;2022-10-16T11:41:03;100479.94;;;37.91;16.53
44103;BME280;29769;42.178;24.742;2022-10-16T11:43:56;100474.13;;;38.48;16.34
44103;BME280;29769;42.178;24.742;2022-10-16T11:46:49;100482.47;;;36.90;17.38
44103;BME280;29769;42.178;24.742;2022-10-16T11:49:37;100480.41;;;35.44;18.42
44103;BME280;29769;42.178;24.742;2022-10-16T11:52:44;100487.66;;;34.05;19.82
44103;BME280;29769;42.178;24.742;2022-10-16T11:55:35;100484.78;;;34.06;19.59
44103;BME280;29769;42.178;24.742;2022-10-16T11:58:28;100484.53;;;34.00;19.63
44103;BME280;29769;42.178;24.742;2022-10-16T12:07:03;100487.31;;;33.90;19.59
44103;BME280;29769;42.178;24.742;2022-10-16T12:09:48;100485.56;;;33.71;19.82
44103;BME280;29769;42.178;24.742;2022-10-16T12:18:07;100486.19;;;34.63;19.43
44103;BME280;29769;42.178;24.742;2022-10-16T12:21:04;100488.00;;;35.84;18.35
44103;BME280;29769;42.178;24.742;2022-10-16T12:26:37;100490.91;;;36.65;17.37
44103;BME280;29769;42.178;24.742;2022-10-16T12:32:29;100481.16;;;33.61;19.82
44103;BME280;29769;42.178;24.742;2022-10-16T12:35:22;100488.25;;;31.52;21.58
44103;BME280;29769;42.178;24.742;2022-10-16T12:39:16;100488.66;;;30.55;22.50
44103;BME280;29769;42.178;24.742;2022-10-16T12:44:24;100490.16;;;32.20;21.57
44103;BME280;29769;42.178;24.742;2022-10-16T12:47:35;100487.13;;;33.74;19.93
44103;BME280;29769;42.178;24.742;2022-10-16T12:50:26;100496.06;;;35.25;18.93
44103;BME280;29769;42.178;24.742;2022-10-16T12:53:22;100495.72;;;35.96;18.26
44103;BME280;29769;42.178;24.742;2022-10-16T13:07:48;100503.88;;;30.03;23.15
44103;BME280;29769;42.178;24.742;2022-10-16T13:30:18;100505.38;;;29.18;24.34
44103;BME280;29769;42.178;24.742;2022-10-16T13:33:06;100505.13;;;29.99;23.31
44103;BME280;29769;42.178;24.742;2022-10-16T13:35:55;100501.72;;;30.61;22.77
44103;BME280;29769;42.178;24.742;2022-10-16T13:38:40;100504.19;;;31.05;22.01
44103;BME280;29769;42.178;24.742;2022-10-16T13:41:25;100498.53;;;30.97;22.08
44103;BME280;29769;42.178;24.742;2022-10-16T13:44:14;100501.31;;;30.65;22.51
44103;BME280;29769;42.178;24.742;2022-10-16T13:47:00;100505.41;;;29.29;23.94
44103;BME280;29769;42.178;24.742;2022-10-16T13:49:45;100498.97;;;28.62;24.70
44103;BME280;29769;42.178;24.742;2022-10-16T13:52:30;100505.94;;;27.82;25.30
44103;BME280;29769;42.178;24.742;2022-10-16T13:55:17;100502.38;;;27.07;26.71
44103;BME280;29769;42.178;24.742;2022-10-16T13:58:07;100504.09;;;26.43;27.62
44103;BME280;29769;42.178;24.742;2022-10-16T14:00:55;100507.63;;;26.83;26.90
44103;BME280;29769;42.178;24.742;2022-10-16T14:03:40;100505.75;;;27.72;26.32
44103;BME280;29769;42.178;24.742;2022-10-16T14:06:25;100504.81;;;27.97;25.72
44103;BME280;29769;42.178;24.742;2022-10-16T14:09:29;100499.22;;;27.13;26.55
44103;BME280;29769;42.178;24.742;2022-10-16T14:12:14;100510.69;;;26.91;27.03
44103;BME280;29769;42.178;24.742;2022-10-16T14:15:00;100507.19;;;26.25;27.64
44103;BME280;29769;42.178;24.742;2022-10-16T14:17:45;100505.94;;;26.16;28.12
44103;BME280;29769;42.178;24.742;2022-10-16T14:20:33;100504.53;;;25.70;28.64
44103;BME280;29769;42.178;24.742;2022-10-16T14:23:29;100515.78;;;25.48;28.98
44103;BME280;29769;42.178;24.742;2022-10-16T14:26:16;100514.53;;;25.11;29.41
44103;BME280;29769;42.178;24.742;2022-10-16T14:29:19;100515.41;;;25.11;29.61
44103;BME280;29769;42.178;24.742;2022-10-16T14:32:05;100514.88;;;24.91;29.99
44103;BME280;29769;42.178;24.742;2022-10-16T14:34:53;100514.16;;;24.73;29.90
44103;BME280;29769;42.178;24.742;2022-10-16T14:37:38;100520.56;;;24.56;30.02
44103;BME280;29769;42.178;24.742;2022-10-16T14:40:24;100512.63;;;24.08;30.82
44103;BME280;29769;42.178;24.742;2022-10-16T14:43:14;100517.28;;;23.74;31.23
44103;BME280;29769;42.178;24.742;2022-10-16T14:46:06;100526.63;;;23.67;31.37
44103;BME280;29769;42.178;24.742;2022-10-16T14:48:56;100517.69;;;23.67;31.74
44103;BME280;29769;42.178;24.742;2022-10-16T14:51:42;100525.75;;;23.51;31.67
44103;BME280;29769;42.178;24.742;2022-10-16T14:54:29;100525.53;;;23.38;31.75
44103;BME280;29769;42.178;24.742;2022-10-16T14:57:15;100524.72;;;23.21;32.10
44103;BME280;29769;42.178;24.742;2022-10-16T15:00:01;100524.66;;;23.05;32.61
44103;BME280;29769;42.178;24.742;2022-10-16T15:02:47;100523.34;;;22.79;32.93
44103;BME280;29769;42.178;24.742;2022-10-16T15:05:33;100524.97;;;22.65;33.54
44103;BME280;29769;42.178;24.742;2022-10-16T15:08:18;100520.03;;;22.57;33.65
44103;BME280;29769;42.178;24.742;2022-10-16T15:11:02;100524.75;;;22.35;34.12
44103;BME280;29769;42.178;24.742;2022-10-16T15:13:47;100525.31;;;22.05;34.58
44103;BME280;29769;42.178;24.742;2022-10-16T15:16:31;100527.94;;;21.88;35.05
44103;BME280;29769;42.178;24.742;2022-10-16T15:19:16;100528.00;;;21.49;35.16
44103;BME280;29769;42.178;24.742;2022-10-16T15:22:00;100534.91;;;21.16;36.15
44103;BME280;29769;42.178;24.742;2022-10-16T15:24:45;100536.50;;;21.00;36.31
44103;BME280;29769;42.178;24.742;2022-10-16T15:27:29;100536.59;;;20.78;37.46
44103;BME280;29769;42.178;24.742;2022-10-16T15:30:14;100542.53;;;20.44;38.22
44103;BME280;29769;42.178;24.742;2022-10-16T15:32:58;100546.13;;;20.21;38.59
44103;BME280;29769;42.178;24.742;2022-10-16T15:35:47;100545.69;;;19.88;39.04
44103;BME280;29769;42.178;24.742;2022-10-16T15:38:32;100555.88;;;19.56;39.90
44103;BME280;29769;42.178;24.742;2022-10-16T15:41:16;100557.75;;;19.29;40.68
44103;BME280;29769;42.178;24.742;2022-10-16T15:44:01;100562.06;;;19.08;41.08
44103;BME280;29769;42.178;24.742;2022-10-16T15:46:46;100561.09;;;18.86;41.86
44103;BME280;29769;42.178;24.742;2022-10-16T15:49:30;100565.09;;;18.73;42.30
44103;BME280;29769;42.178;24.742;2022-10-16T15:52:15;100569.28;;;18.55;42.70
44103;BME280;29769;42.178;24.742;2022-10-16T15:55:00;100573.28;;;18.40;43.32
44103;BME280;29769;42.178;24.742;2022-10-16T15:57:45;100577.28;;;18.27;43.62
44103;BME280;29769;42.178;24.742;2022-10-16T16:00:29;100579.63;;;18.10;43.97
44103;BME280;29769;42.178;24.742;2022-10-16T16:03:14;100582.44;;;18.05;43.91
44103;BME280;29769;42.178;24.742;2022-10-16T16:06:03;100591.47;;;18.00;44.21
44103;BME280;29769;42.178;24.742;2022-10-16T16:08:48;100586.41;;;17.92;44.33
44103;BME280;29769;42.178;24.742;2022-10-16T16:11:32;100590.22;;;17.84;44.05
44103;BME280;29769;42.178;24.742;2022-10-16T16:14:21;100598.25;;;17.82;44.31
44103;BME280;29769;42.178;24.742;2022-10-16T16:17:09;100596.63;;;17.76;44.73
44103;BME280;29769;42.178;24.742;2022-10-16T16:19:53;100603.06;;;17.69;44.89
44103;BME280;29769;42.178;24.742;2022-10-16T16:22:38;100606.06;;;17.57;45.43
44103;BME280;29769;42.178;24.742;2022-10-16T16:25:23;100611.03;;;17.39;46.49